Time;durP1;ratioP1;P1;durP2;ratioP2;P2;SDS_P1;SDS_P2;PMS_P1;PMS_P2;Temp;Humidity;BMP_temperature;BMP_pressure;BME280_temperature;BME280_humidity;BME280_pressure;Samples;Min_cycle;Max_cycle;Signal;HPM_P1;HPM_P2
2022/01/12 00:00:50;;;;;;;;;;;2.60;99.90;;;;;;5032994;28;20444;-57
2022/01/12 00:03:15;;;;;;;;;;;2.60;99.90;;;;;;5033033;28;19928;-56
2022/01/12 00:05:41;;;;;;;;;;;2.60;99.90;;;;;;5034861;28;19912;-58
2022/01/12 00:08:08;;;;;;;;;;;2.60;99.90;;;;;;5034554;28;20325;-57
2022/01/12 00:10:33;;;;;;;;;;;2.50;99.90;;;;;;5034088;28;19912;-58
2022/01/12 00:12:59;;;;;;;;;;;2.60;99.90;;;;;;5037595;28;20358;-58
2022/01/12 00:15:24;;;;;;;;;;;2.60;99.90;;;;;;5032907;28;19928;-57
2022/01/12 00:17:50;;;;;;;;;;;2.60;99.90;;;;;;5037393;28;20007;-57
2022/01/12 00:20:15;;;;;;;;;;;2.60;99.90;;;;;;5036937;28;19915;-58
2022/01/12 00:22:41;;;;;;;;;;;2.60;99.90;;;;;;5035796;28;19916;-58
2022/01/12 00:33:12;;;;;;;;;;;2.60;99.90;;;;;;5032823;28;19920;-59
2022/01/12 00:35:38;;;;;;;;;;;2.60;99.90;;;;;;5036855;28;20357;-59
2022/01/12 00:38:04;;;;;;;;;;;2.60;99.90;;;;;;5034117;28;19910;-58
2022/01/12 00:40:29;;;;;;;;;;;2.60;99.90;;;;;;5034229;28;19909;-59
2022/01/12 00:42:55;;;;;;;;;;;2.60;99.90;;;;;;5035509;28;20428;-58
2022/01/12 00:45:21;;;;;;;;;;;2.60;99.90;;;;;;5032074;28;19909;-58
2022/01/12 00:47:46;;;;;;;;;;;2.60;99.90;;;;;;5034444;28;19913;-58
2022/01/12 00:50:12;;;;;;;;;;;2.70;99.90;;;;;;5036430;28;20354;-57
2022/01/12 00:52:37;;;;;;;;;;;2.70;99.90;;;;;;5038207;28;20637;-59
2022/01/12 00:55:03;;;;;;;;;;;2.60;99.90;;;;;;5033363;28;19909;-59
2022/01/12 00:57:29;;;;;;;;;;;2.60;99.90;;;;;;5033489;28;19919;-59
2022/01/12 00:59:55;;;;;;;;;;;2.60;99.90;;;;;;5030783;28;19916;-59
2022/01/12 01:02:20;;;;;;;;;;;2.60;99.90;;;;;;5031475;28;19919;-59
2022/01/12 01:04:46;;;;;;;;;;;2.60;99.90;;;;;;5029312;28;20167;-58
2022/01/12 01:07:11;;;;;;;;;;;2.70;99.90;;;;;;5033302;28;20003;-56
2022/01/12 01:09:41;;;;;;;;;;;2.70;99.90;;;;;;5029413;28;19909;-58
2022/01/12 01:12:07;;;;;;;;;;;2.70;99.90;;;;;;5035266;28;19905;-58
2022/01/12 01:14:45;;;;;;;;;;;2.70;99.90;;;;;;5037617;28;19974;-56
2022/01/12 01:27:54;;;;;;;;;;;2.70;99.90;;;;;;5035448;28;19920;-59
2022/01/12 01:30:19;;;;;;;;;;;2.70;99.90;;;;;;5033880;28;19909;-58
2022/01/12 01:32:46;;;;;;;;;;;2.70;99.90;;;;;;5034003;28;19921;-59
2022/01/12 01:35:11;;;;;;;;;;;2.70;99.90;;;;;;5033803;28;19908;-59
2022/01/12 01:37:40;;;;;;;;;;;2.70;99.90;;;;;;5033983;28;19950;-59
2022/01/12 01:40:07;;;;;;;;;;;2.70;99.90;;;;;;5034453;28;19912;-59
2022/01/12 01:42:53;;;;;;;;;;;2.70;99.90;;;;;;5034453;28;19940;-59
2022/01/12 01:53:45;;;;;;;;;;;2.70;99.90;;;;;;5036831;28;19928;-57
2022/01/12 01:56:10;;;;;;;;;;;2.70;99.90;;;;;;5035626;28;19913;-59
2022/01/12 01:58:36;;;;;;;;;;;2.80;99.90;;;;;;5037890;28;19968;-59
2022/01/12 02:01:01;;;;;;;;;;;2.80;99.90;;;;;;5038921;28;19912;-59
2022/01/12 02:03:29;;;;;;;;;;;2.80;99.90;;;;;;5039857;28;19958;-59
2022/01/12 02:05:55;;;;;;;;;;;2.80;99.90;;;;;;5039519;28;19905;-59
2022/01/12 02:08:21;;;;;;;;;;;2.80;99.90;;;;;;5036383;28;19913;-59
2022/01/12 02:10:46;;;;;;;;;;;2.80;99.90;;;;;;5036070;28;19912;-59
2022/01/12 02:13:12;;;;;;;;;;;2.80;99.90;;;;;;5036636;28;19909;-59
2022/01/12 02:15:39;;;;;;;;;;;2.80;99.90;;;;;;5037526;28;19917;-59
2022/01/12 02:18:14;;;;;;;;;;;2.80;99.90;;;;;;5040728;28;19915;-58
2022/01/12 02:35:22;;;;;;;;;;;3.00;99.90;;;;;;5039927;28;20383;-60
2022/01/12 02:40:36;;;;;;;;;;;3.00;99.90;;;;;;5034141;28;19913;-58
2022/01/12 02:51:30;;;;;;;;;;;3.10;99.90;;;;;;5036788;28;19916;-58
2022/01/12 02:53:43;;;;;;;;;;;3.10;99.90;;;;;;5041677;28;19909;-59
2022/01/12 02:56:18;;;;;;;;;;;3.20;99.90;;;;;;5032221;28;19997;-58
2022/01/12 02:58:45;;;;;;;;;;;3.20;99.90;;;;;;5037055;28;20318;-58
2022/01/12 03:03:44;;;;;;;;;;;3.20;99.90;;;;;;5041666;28;19904;-59
2022/01/12 03:06:14;;;;;;;;;;;3.20;99.90;;;;;;5037959;28;20160;-59
2022/01/12 03:08:40;;;;;;;;;;;3.20;99.90;;;;;;5033903;28;19913;-59
2022/01/12 03:11:06;;;;;;;;;;;3.20;99.90;;;;;;5040368;28;19915;-59
2022/01/12 03:13:32;;;;;;;;;;;3.30;99.90;;;;;;5040632;28;19920;-58
2022/01/12 03:15:58;;;;;;;;;;;3.30;99.90;;;;;;5040014;28;19920;-58
2022/01/12 03:18:23;;;;;;;;;;;3.30;99.90;;;;;;5038628;28;20420;-58
2022/01/12 03:20:49;;;;;;;;;;;3.30;99.90;;;;;;5039155;28;19985;-58
2022/01/12 03:23:15;;;;;;;;;;;3.40;99.90;;;;;;5037258;28;20212;-59
2022/01/12 03:25:41;;;;;;;;;;;3.40;99.90;;;;;;5036451;28;19920;-59
2022/01/12 03:28:07;;;;;;;;;;;3.40;99.90;;;;;;5033551;28;19912;-58
2022/01/12 03:30:46;;;;;;;;;;;3.40;99.90;;;;;;5037450;28;20207;-58
2022/01/12 03:38:47;;;;;;;;;;;3.50;99.90;;;;;;5019991;28;19963;-59
2022/01/12 03:41:13;;;;;;;;;;;3.50;99.90;;;;;;5037002;28;19982;-58
2022/01/12 03:43:39;;;;;;;;;;;3.50;99.90;;;;;;5037054;28;19909;-57
2022/01/12 03:46:04;;;;;;;;;;;3.50;99.90;;;;;;5031988;28;19917;-58
2022/01/12 03:48:30;;;;;;;;;;;3.60;99.90;;;;;;5032911;28;20293;-58
2022/01/12 03:50:56;;;;;;;;;;;3.60;99.90;;;;;;5035223;28;19916;-59
2022/01/12 03:53:22;;;;;;;;;;;3.60;99.90;;;;;;5035196;28;19940;-59
2022/01/12 03:55:48;;;;;;;;;;;3.60;99.90;;;;;;5039158;28;19990;-59
2022/01/12 03:58:13;;;;;;;;;;;3.70;99.90;;;;;;5038427;28;19914;-59
2022/01/12 04:00:38;;;;;;;;;;;3.70;99.90;;;;;;5033298;28;19913;-59
2022/01/12 04:03:06;;;;;;;;;;;3.70;99.90;;;;;;5037674;28;19923;-59
2022/01/12 04:08:20;;;;;;;;;;;3.70;99.90;;;;;;5038090;28;19943;-59
2022/01/12 04:10:46;;;;;;;;;;;3.70;99.90;;;;;;5037287;28;20238;-59
2022/01/12 04:13:11;;;;;;;;;;;3.70;99.90;;;;;;5037093;28;19909;-59
2022/01/12 04:15:37;;;;;;;;;;;3.70;99.90;;;;;;5035087;28;19928;-59
2022/01/12 04:18:02;;;;;;;;;;;3.70;99.90;;;;;;5036016;28;20017;-59
2022/01/12 04:20:29;;;;;;;;;;;3.80;99.90;;;;;;5034952;28;20324;-58
2022/01/12 04:25:39;;;;;;;;;;;3.80;99.90;;;;;;5035367;28;19919;-58
2022/01/12 04:28:04;;;;;;;;;;;3.80;99.90;;;;;;5036064;28;19917;-59
2022/01/12 04:30:30;;;;;;;;;;;3.80;99.90;;;;;;5033530;28;19913;-58
2022/01/12 04:32:55;;;;;;;;;;;3.90;99.90;;;;;;5038131;28;20252;-58
2022/01/12 04:35:24;;;;;;;;;;;3.80;99.90;;;;;;5038281;28;19912;-59
2022/01/12 04:37:50;;;;;;;;;;;3.90;99.90;;;;;;5037907;28;19916;-58
2022/01/12 04:40:16;;;;;;;;;;;3.90;99.90;;;;;;5033637;28;19967;-59
2022/01/12 04:42:41;;;;;;;;;;;3.90;99.90;;;;;;5036963;28;19913;-58
2022/01/12 04:45:37;;;;;;;;;;;3.90;99.90;;;;;;5034672;28;20962;-58
2022/01/12 04:50:40;;;;;;;;;;;3.90;99.90;;;;;;5035874;28;19912;-58
2022/01/12 04:53:06;;;;;;;;;;;3.90;99.90;;;;;;5034589;28;20288;-58
2022/01/12 04:55:32;;;;;;;;;;;3.90;99.90;;;;;;5035865;28;19920;-59
2022/01/12 04:57:57;;;;;;;;;;;3.90;99.90;;;;;;5031233;28;19916;-59
2022/01/12 05:00:23;;;;;;;;;;;3.90;99.90;;;;;;5034717;28;20322;-59
2022/01/12 05:08:23;;;;;;;;;;;4.00;99.90;;;;;;5034602;28;19935;-58
2022/01/12 05:13:33;;;;;;;;;;;4.00;99.90;;;;;;5030025;28;19919;-59
2022/01/12 05:16:00;;;;;;;;;;;4.00;99.90;;;;;;5027401;28;19917;-57
2022/01/12 05:18:26;;;;;;;;;;;4.00;99.90;;;;;;5034122;28;20444;-59
2022/01/12 05:20:52;;;;;;;;;;;4.00;99.90;;;;;;5037577;28;19920;-59
2022/01/12 05:23:18;;;;;;;;;;;4.00;99.90;;;;;;5033082;28;19932;-59
2022/01/12 05:25:46;;;;;;;;;;;4.00;99.90;;;;;;5031491;28;19999;-59
2022/01/12 05:28:12;;;;;;;;;;;4.10;99.90;;;;;;5035161;28;19913;-59
2022/01/12 05:30:38;;;;;;;;;;;4.10;99.90;;;;;;5036798;28;19931;-59
2022/01/12 05:33:03;;;;;;;;;;;4.00;99.90;;;;;;5030813;28;20273;-59
2022/01/12 05:35:32;;;;;;;;;;;4.00;99.90;;;;;;5031572;28;19905;-59
2022/01/12 05:37:58;;;;;;;;;;;4.00;99.90;;;;;;5028005;28;20010;-58
2022/01/12 05:40:24;;;;;;;;;;;4.00;99.90;;;;;;5034995;28;19913;-58
2022/01/12 05:42:51;;;;;;;;;;;4.00;99.90;;;;;;5030184;28;19920;-57
2022/01/12 05:45:18;;;;;;;;;;;4.00;99.90;;;;;;5030458;28;19955;-58
2022/01/12 05:50:10;;;;;;;;;;;5.10;99.90;;;;;;5025167;28;19939;-59
2022/01/12 05:52:35;;;;;;;;;;;5.00;99.90;;;;;;5025716;28;19917;-59
2022/01/12 05:55:03;;;;;;;;;;;4.80;99.90;;;;;;5024253;28;20365;-60
2022/01/12 05:57:31;;;;;;;;;;;4.60;99.90;;;;;;5024834;28;20270;-59
2022/01/12 05:59:57;;;;;;;;;;;4.50;99.90;;;;;;5025132;28;19913;-59
2022/01/12 06:02:23;;;;;;;;;;;4.40;99.90;;;;;;5031043;28;19974;-59
2022/01/12 06:04:49;;;;;;;;;;;4.30;99.90;;;;;;5030207;28;20500;-59
2022/01/12 06:07:14;;;;;;;;;;;4.20;99.90;;;;;;5028706;28;19916;-59
2022/01/12 06:09:40;;;;;;;;;;;4.20;99.90;;;;;;5030778;28;19958;-60
2022/01/12 06:12:05;;;;;;;;;;;4.10;99.90;;;;;;5026252;28;20184;-60
2022/01/12 06:14:31;;;;;;;;;;;4.10;99.90;;;;;;5029113;28;20298;-60
2022/01/12 06:16:56;;;;;;;;;;;4.10;99.90;;;;;;5031558;28;19912;-60
2022/01/12 06:19:22;;;;;;;;;;;4.10;99.90;;;;;;5028509;28;20369;-59
2022/01/12 06:21:47;;;;;;;;;;;4.10;99.90;;;;;;5025553;28;19923;-59
2022/01/12 06:24:13;;;;;;;;;;;4.10;99.90;;;;;;5031448;28;19959;-59
2022/01/12 06:26:38;;;;;;;;;;;4.10;99.90;;;;;;5027897;28;20365;-58
2022/01/12 06:31:36;;;;;;;;;;;4.10;99.90;;;;;;5030901;28;19921;-59
2022/01/12 06:34:02;;;;;;;;;;;4.20;99.90;;;;;;5033436;28;19951;-59
2022/01/12 06:36:27;;;;;;;;;;;4.10;99.90;;;;;;5035100;28;20308;-59
2022/01/12 06:38:53;;;;;;;;;;;4.10;99.90;;;;;;5035071;28;20304;-59
2022/01/12 06:41:19;;;;;;;;;;;4.10;99.90;;;;;;5041225;28;19920;-59
2022/01/12 06:43:44;;;;;;;;;;;4.20;99.90;;;;;;5039778;28;19978;-59
2022/01/12 06:46:10;;;;;;;;;;;4.20;99.90;;;;;;5036862;28;19943;-59
2022/01/12 06:48:35;;;;;;;;;;;4.10;99.90;;;;;;5034652;28;20543;-59
2022/01/12 06:51:02;;;;;;;;;;;4.10;99.90;;;;;;5038326;28;20362;-59
2022/01/12 06:53:27;;;;;;;;;;;4.10;99.90;;;;;;5038351;28;19913;-59
2022/01/12 06:55:53;;;;;;;;;;;4.10;99.90;;;;;;5035577;28;19920;-59
2022/01/12 06:58:18;;;;;;;;;;;4.10;99.90;;;;;;5038596;28;19909;-60
2022/01/12 07:00:44;;;;;;;;;;;4.20;99.90;;;;;;5041393;28;20362;-59
2022/01/12 07:03:09;;;;;;;;;;;4.10;99.90;;;;;;5038224;28;20000;-59
2022/01/12 07:05:35;;;;;;;;;;;4.10;99.90;;;;;;5041366;28;19919;-59
2022/01/12 07:08:00;;;;;;;;;;;4.10;99.90;;;;;;5035434;28;19909;-59
2022/01/12 07:10:26;;;;;;;;;;;4.10;99.90;;;;;;5036553;28;19909;-58
2022/01/12 07:12:51;;;;;;;;;;;4.10;99.90;;;;;;5026430;28;19905;-59
2022/01/12 07:15:17;;;;;;;;;;;4.10;99.90;;;;;;5036872;28;20372;-59
2022/01/12 07:17:42;;;;;;;;;;;4.10;99.90;;;;;;5035712;28;19909;-59
2022/01/12 07:20:08;;;;;;;;;;;4.10;99.90;;;;;;5039257;28;19920;-59
2022/01/12 07:22:33;;;;;;;;;;;4.10;99.90;;;;;;5039635;28;19935;-59
2022/01/12 07:24:59;;;;;;;;;;;4.20;99.90;;;;;;5040086;28;19916;-59
2022/01/12 07:27:24;;;;;;;;;;;4.20;99.90;;;;;;5031269;28;19911;-58
2022/01/12 07:29:50;;;;;;;;;;;4.20;99.90;;;;;;5037670;28;19920;-59
2022/01/12 07:32:15;;;;;;;;;;;4.20;99.90;;;;;;5038272;28;20180;-58
2022/01/12 07:34:40;;;;;;;;;;;4.20;99.90;;;;;;5037067;28;19916;-59
2022/01/12 07:37:06;;;;;;;;;;;4.20;99.90;;;;;;5034824;28;19962;-59
2022/01/12 07:39:32;;;;;;;;;;;4.20;99.90;;;;;;5034547;28;19916;-59
2022/01/12 07:41:57;;;;;;;;;;;4.20;99.90;;;;;;5036372;28;19920;-59
2022/01/12 07:44:22;;;;;;;;;;;4.20;99.90;;;;;;5034793;28;19909;-59
2022/01/12 07:46:48;;;;;;;;;;;4.20;99.90;;;;;;5033193;28;20285;-59
2022/01/12 07:49:13;;;;;;;;;;;4.20;99.90;;;;;;5032328;28;19909;-59
2022/01/12 07:51:39;;;;;;;;;;;4.20;99.90;;;;;;5036479;28;19947;-59
2022/01/12 07:54:04;;;;;;;;;;;4.20;99.90;;;;;;5035717;28;19909;-59
2022/01/12 07:56:30;;;;;;;;;;;4.20;99.90;;;;;;5031865;28;19920;-59
2022/01/12 07:58:55;;;;;;;;;;;4.20;99.90;;;;;;5032142;28;19960;-59
2022/01/12 08:01:21;;;;;;;;;;;4.20;99.90;;;;;;5034534;28;19981;-59
2022/01/12 08:03:46;;;;;;;;;;;4.20;99.90;;;;;;5032729;28;19912;-60
2022/01/12 08:06:12;;;;;;;;;;;4.20;99.90;;;;;;5039087;28;19913;-59
2022/01/12 08:08:37;;;;;;;;;;;4.20;99.90;;;;;;5034011;28;20008;-60
2022/01/12 08:11:03;;;;;;;;;;;4.20;99.90;;;;;;5036558;28;19916;-60
2022/01/12 08:13:28;;;;;;;;;;;4.20;99.90;;;;;;5035332;28;19912;-60
2022/01/12 08:15:53;;;;;;;;;;;4.20;99.90;;;;;;5034644;28;19916;-59
2022/01/12 08:18:19;;;;;;;;;;;4.20;99.90;;;;;;5035478;28;20397;-60
2022/01/12 08:20:44;;;;;;;;;;;4.20;99.90;;;;;;5032394;28;19909;-59
2022/01/12 08:23:10;;;;;;;;;;;4.30;99.90;;;;;;5036426;28;19924;-59
2022/01/12 08:25:38;;;;;;;;;;;4.30;99.90;;;;;;5032645;28;19994;-59
2022/01/12 08:28:04;;;;;;;;;;;4.30;99.90;;;;;;5031735;28;19932;-59
2022/01/12 08:30:31;;;;;;;;;;;4.30;99.90;;;;;;5033483;28;19913;-59
2022/01/12 08:32:57;;;;;;;;;;;4.30;99.90;;;;;;5035493;28;20267;-59
2022/01/12 08:35:23;;;;;;;;;;;4.30;99.90;;;;;;5036092;28;19961;-59
2022/01/12 08:37:48;;;;;;;;;;;4.30;99.90;;;;;;5036674;28;19919;-60
2022/01/12 08:40:15;;;;;;;;;;;4.30;99.90;;;;;;5036365;28;19913;-59
2022/01/12 08:42:41;;;;;;;;;;;4.30;99.90;;;;;;5034298;28;19909;-59
2022/01/12 08:45:07;;;;;;;;;;;4.30;99.90;;;;;;5035007;28;20358;-59
2022/01/12 08:47:33;;;;;;;;;;;4.30;99.90;;;;;;5033840;28;19916;-59
2022/01/12 08:49:58;;;;;;;;;;;4.30;99.90;;;;;;5036761;28;19915;-59
2022/01/12 08:52:24;;;;;;;;;;;4.40;99.90;;;;;;5033706;28;19913;-60
2022/01/12 08:54:50;;;;;;;;;;;4.40;99.90;;;;;;5038006;28;19912;-59
2022/01/12 08:57:16;;;;;;;;;;;4.40;99.90;;;;;;5031433;28;20404;-59
2022/01/12 08:59:41;;;;;;;;;;;4.40;99.90;;;;;;5036250;28;19913;-59
2022/01/12 09:02:07;;;;;;;;;;;4.40;99.90;;;;;;5030451;28;19920;-59
2022/01/12 09:04:33;;;;;;;;;;;4.40;99.90;;;;;;5034680;28;19913;-59
2022/01/12 09:06:58;;;;;;;;;;;4.50;99.90;;;;;;5035015;28;20322;-59
2022/01/12 09:09:24;;;;;;;;;;;4.50;99.90;;;;;;5035246;28;20000;-60
2022/01/12 09:11:50;;;;;;;;;;;4.50;99.90;;;;;;5033236;28;20366;-59
2022/01/12 09:14:16;;;;;;;;;;;4.50;99.90;;;;;;5034594;28;19935;-59
2022/01/12 09:16:42;;;;;;;;;;;4.50;99.90;;;;;;5030864;28;19916;-60
2022/01/12 09:19:09;;;;;;;;;;;4.50;99.90;;;;;;5034232;28;19924;-60
2022/01/12 09:21:34;;;;;;;;;;;4.50;99.90;;;;;;5033168;28;19924;-59
2022/01/12 09:24:00;;;;;;;;;;;4.50;99.90;;;;;;5034234;28;20279;-60
2022/01/12 09:26:25;;;;;;;;;;;4.50;99.90;;;;;;5033942;28;19959;-59
2022/01/12 09:28:51;;;;;;;;;;;4.50;99.90;;;;;;5036062;28;19916;-58
2022/01/12 09:31:16;;;;;;;;;;;4.50;99.90;;;;;;5033475;28;19974;-58
2022/01/12 09:33:42;;;;;;;;;;;4.50;99.90;;;;;;5035557;28;20479;-59
2022/01/12 09:36:07;;;;;;;;;;;4.50;99.90;;;;;;5032276;28;20393;-59
2022/01/12 09:38:33;;;;;;;;;;;4.50;99.90;;;;;;5033326;28;19999;-59
2022/01/12 09:40:58;;;;;;;;;;;4.60;99.90;;;;;;5034644;28;19960;-59
2022/01/12 09:43:26;;;;;;;;;;;4.60;99.90;;;;;;5031893;28;20267;-59
2022/01/12 09:45:52;;;;;;;;;;;4.60;99.90;;;;;;5036579;28;20263;-59
2022/01/12 09:48:22;;;;;;;;;;;4.60;99.90;;;;;;5032503;28;19924;-60
2022/01/12 09:50:47;;;;;;;;;;;4.60;99.90;;;;;;5032915;28;19916;-60
2022/01/12 09:53:13;;;;;;;;;;;4.60;99.90;;;;;;5035796;28;20404;-59
2022/01/12 09:55:38;;;;;;;;;;;4.60;99.90;;;;;;5033971;28;20290;-60
2022/01/12 09:58:04;;;;;;;;;;;4.60;99.90;;;;;;5033875;28;19947;-60
2022/01/12 10:00:29;;;;;;;;;;;4.60;99.90;;;;;;5030884;28;20022;-60
2022/01/12 10:02:55;;;;;;;;;;;4.60;99.90;;;;;;5035875;28;19913;-59
2022/01/12 10:05:28;;;;;;;;;;;4.60;99.90;;;;;;5033762;28;19913;-59
2022/01/12 10:07:53;;;;;;;;;;;4.60;99.90;;;;;;5032762;28;19913;-60
2022/01/12 10:10:19;;;;;;;;;;;4.60;99.90;;;;;;5034239;28;19913;-60
2022/01/12 10:12:52;;;;;;;;;;;4.60;99.90;;;;;;5039357;28;19940;-60
2022/01/12 10:15:17;;;;;;;;;;;4.60;99.90;;;;;;5005349;22;20297;-75
2022/01/12 10:17:44;;;;;;;;;;;4.70;99.90;;;;;;5019646;28;19909;-76
2022/01/12 10:20:14;;;;;;;;;;;4.70;99.90;;;;;;5017165;28;19920;-76
2022/01/12 10:22:43;;;;;;;;;;;4.70;99.90;;;;;;5021275;28;20273;-82
2022/01/12 10:25:16;;;;;;;;;;;4.70;99.90;;;;;;5020639;28;19947;-78
2022/01/12 10:27:41;;;;;;;;;;;4.70;99.90;;;;;;5019712;28;19916;-76
2022/01/12 10:30:07;;;;;;;;;;;4.70;99.90;;;;;;5018651;28;19914;-78
2022/01/12 10:32:33;;;;;;;;;;;4.70;99.90;;;;;;5019008;28;19920;-75
2022/01/12 10:35:00;;;;;;;;;;;4.80;99.90;;;;;;5019508;28;19968;-76
2022/01/12 10:37:26;;;;;;;;;;;4.80;99.90;;;;;;5019154;28;19919;-78
2022/01/12 10:39:53;;;;;;;;;;;4.80;99.90;;;;;;5019772;28;20000;-77
2022/01/12 10:42:22;;;;;;;;;;;4.80;99.90;;;;;;5019599;28;19909;-78
2022/01/12 10:44:49;;;;;;;;;;;4.80;99.90;;;;;;5019735;28;19917;-80
2022/01/12 10:47:18;;;;;;;;;;;4.70;99.90;;;;;;5018687;28;19909;-75
2022/01/12 10:49:47;;;;;;;;;;;4.70;99.90;;;;;;5019350;28;20314;-76
2022/01/12 10:52:13;;;;;;;;;;;4.70;99.90;;;;;;5018510;28;19920;-76
2022/01/12 10:54:58;;;;;;;;;;;4.70;99.90;;;;;;5020197;28;19921;-75
2022/01/12 10:57:25;;;;;;;;;;;4.70;99.90;;;;;;5017546;28;20150;-76
2022/01/12 11:00:05;;;;;;;;;;;4.70;99.90;;;;;;5017966;28;19920;-75
2022/01/12 11:02:31;;;;;;;;;;;4.70;99.90;;;;;;5020381;28;19933;-75
2022/01/12 11:04:57;;;;;;;;;;;4.70;99.90;;;;;;5019114;28;19967;-81
2022/01/12 11:07:26;;;;;;;;;;;4.80;99.90;;;;;;5015842;28;19917;-79
2022/01/12 11:09:54;;;;;;;;;;;4.80;99.90;;;;;;5018641;28;20119;-79
2022/01/12 11:12:19;;;;;;;;;;;4.80;99.90;;;;;;5020337;28;19905;-80
2022/01/12 11:14:45;;;;;;;;;;;4.80;99.90;;;;;;5020066;28;20301;-78
2022/01/12 11:17:10;;;;;;;;;;;4.80;99.90;;;;;;5020962;28;20063;-79
2022/01/12 11:19:38;;;;;;;;;;;4.80;99.90;;;;;;5019934;28;19913;-79
2022/01/12 11:22:13;;;;;;;;;;;4.80;99.90;;;;;;5019042;28;19967;-79
2022/01/12 11:24:38;;;;;;;;;;;4.80;99.90;;;;;;5016351;28;19913;-79
2022/01/12 11:27:05;;;;;;;;;;;4.80;99.90;;;;;;5017123;28;20266;-79
2022/01/12 11:29:34;;;;;;;;;;;4.80;99.90;;;;;;5019008;28;20262;-74
2022/01/12 11:32:04;;;;;;;;;;;4.80;99.90;;;;;;5016379;28;20251;-75
2022/01/12 11:34:30;;;;;;;;;;;4.90;99.90;;;;;;5019736;28;19998;-74
2022/01/12 11:36:55;;;;;;;;;;;4.90;99.90;;;;;;5020132;28;19994;-74
2022/01/12 11:39:22;;;;;;;;;;;4.90;99.90;;;;;;5018143;28;19917;-75
2022/01/12 11:41:48;;;;;;;;;;;4.90;99.90;;;;;;5019113;28;20043;-75
2022/01/12 11:44:16;;;;;;;;;;;4.90;99.90;;;;;;5018817;28;20341;-75
2022/01/12 11:46:46;;;;;;;;;;;4.90;99.90;;;;;;5018821;28;19913;-73
2022/01/12 11:49:12;;;;;;;;;;;4.90;99.90;;;;;;5016973;28;19913;-73
2022/01/12 11:51:39;;;;;;;;;;;4.90;99.90;;;;;;5016698;28;19920;-78
2022/01/12 11:54:07;;;;;;;;;;;4.90;99.90;;;;;;5017769;28;19921;-81
2022/01/12 11:56:33;;;;;;;;;;;4.90;99.90;;;;;;5018247;28;20416;-76
2022/01/12 11:59:05;;;;;;;;;;;4.90;99.90;;;;;;5017565;28;19917;-80
2022/01/12 12:01:49;;;;;;;;;;;4.90;99.90;;;;;;5012685;28;19922;-79
2022/01/12 12:04:26;;;;;;;;;;;5.00;99.90;;;;;;5015798;28;20342;-75
2022/01/12 12:07:13;;;;;;;;;;;5.00;99.90;;;;;;5019724;28;19905;-76
2022/01/12 12:09:43;;;;;;;;;;;5.00;99.90;;;;;;5019335;28;19921;-83
2022/01/12 12:12:18;;;;;;;;;;;4.90;99.90;;;;;;5016284;28;19917;-78
2022/01/12 12:14:46;;;;;;;;;;;5.00;99.90;;;;;;5017010;28;19913;-76
2022/01/12 12:17:11;;;;;;;;;;;5.00;99.90;;;;;;5017036;28;19917;-74
2022/01/12 12:19:37;;;;;;;;;;;5.00;99.90;;;;;;5018016;28;19996;-75
2022/01/12 12:22:07;;;;;;;;;;;5.00;99.90;;;;;;5016504;28;19993;-78
2022/01/12 12:24:32;;;;;;;;;;;5.00;99.90;;;;;;5017212;28;19909;-77
2022/01/12 12:26:58;;;;;;;;;;;5.00;99.90;;;;;;5016679;28;19920;-77
2022/01/12 12:29:26;;;;;;;;;;;5.00;99.90;;;;;;5019389;28;19920;-82
2022/01/12 12:31:52;;;;;;;;;;;5.10;99.90;;;;;;5018552;28;19913;-78
2022/01/12 12:34:20;;;;;;;;;;;5.10;99.90;;;;;;5018799;28;19992;-78
2022/01/12 12:36:46;;;;;;;;;;;5.10;99.90;;;;;;5016590;28;19913;-77
2022/01/12 12:39:14;;;;;;;;;;;5.20;99.90;;;;;;5016547;28;19916;-77
2022/01/12 12:41:43;;;;;;;;;;;5.20;99.90;;;;;;5017536;28;19920;-76
2022/01/12 12:44:22;;;;;;;;;;;5.20;99.90;;;;;;5018419;28;20285;-77
2022/01/12 12:46:51;;;;;;;;;;;5.30;99.90;;;;;;5019064;28;19951;-77
2022/01/12 12:49:17;;;;;;;;;;;5.30;99.90;;;;;;5018627;28;19917;-74
2022/01/12 12:51:42;;;;;;;;;;;5.40;99.90;;;;;;5017244;28;19909;-75
2022/01/12 12:54:08;;;;;;;;;;;5.40;99.90;;;;;;5014298;28;20300;-74
2022/01/12 12:56:40;;;;;;;;;;;5.50;99.90;;;;;;5017368;28;19924;-73
2022/01/12 12:59:07;;;;;;;;;;;5.50;99.90;;;;;;5017319;28;19959;-73
2022/01/12 13:01:32;;;;;;;;;;;5.40;99.90;;;;;;5016351;28;20011;-74
2022/01/12 13:04:00;;;;;;;;;;;5.50;99.90;;;;;;5016785;28;20020;-76
2022/01/12 13:06:28;;;;;;;;;;;5.50;99.90;;;;;;5018369;28;19909;-74
2022/01/12 13:08:54;;;;;;;;;;;5.40;99.90;;;;;;5017517;28;19917;-73
2022/01/12 13:11:26;;;;;;;;;;;5.50;99.90;;;;;;5016438;28;19913;-74
2022/01/12 13:13:59;;;;;;;;;;;5.40;99.90;;;;;;5018602;28;20376;-74
2022/01/12 13:16:26;;;;;;;;;;;5.40;99.90;;;;;;5015757;28;19912;-75
2022/01/12 13:18:52;;;;;;;;;;;5.40;99.90;;;;;;5017536;28;20341;-75
2022/01/12 13:21:17;;;;;;;;;;;5.40;99.90;;;;;;5018681;28;19937;-74
2022/01/12 13:23:44;;;;;;;;;;;5.40;99.90;;;;;;5017372;28;19948;-74
2022/01/12 13:26:12;;;;;;;;;;;5.40;99.90;;;;;;5015514;28;19913;-76
2022/01/12 13:28:38;;;;;;;;;;;5.40;99.90;;;;;;5016041;28;19913;-76
2022/01/12 13:31:05;;;;;;;;;;;5.40;99.90;;;;;;5016261;28;19953;-75
2022/01/12 13:33:33;;;;;;;;;;;5.40;99.90;;;;;;5018639;28;20310;-76
2022/01/12 13:36:09;;;;;;;;;;;5.40;99.90;;;;;;5017063;28;19913;-75
2022/01/12 13:38:35;;;;;;;;;;;5.40;99.90;;;;;;5017070;28;19996;-75
2022/01/12 13:41:10;;;;;;;;;;;5.30;99.90;;;;;;5015481;28;20004;-74
2022/01/12 13:43:36;;;;;;;;;;;5.30;99.90;;;;;;5018060;28;19912;-76
2022/01/12 13:46:12;;;;;;;;;;;5.20;99.90;;;;;;5014935;28;19917;-77
2022/01/12 13:48:41;;;;;;;;;;;5.20;99.90;;;;;;5021577;28;20266;-76
2022/01/12 13:51:07;;;;;;;;;;;5.10;99.90;;;;;;5019245;28;19999;-74
2022/01/12 13:53:32;;;;;;;;;;;5.10;99.90;;;;;;5021602;28;20045;-74
2022/01/12 13:55:58;;;;;;;;;;;5.00;99.90;;;;;;5021367;28;19936;-76
2022/01/12 13:58:27;;;;;;;;;;;5.00;99.90;;;;;;5020577;28;19936;-72
2022/01/12 14:01:05;;;;;;;;;;;5.00;99.90;;;;;;5017734;28;19967;-73
2022/01/12 14:03:38;;;;;;;;;;;5.10;99.90;;;;;;5021718;28;19949;-75
2022/01/12 14:06:12;;;;;;;;;;;5.10;99.90;;;;;;5019936;28;19909;-77
2022/01/12 14:08:51;;;;;;;;;;;5.10;99.90;;;;;;5020265;28;20020;-75
2022/01/12 14:11:16;;;;;;;;;;;5.10;99.90;;;;;;5022138;28;20477;-74
2022/01/12 14:13:42;;;;;;;;;;;5.10;99.90;;;;;;5021139;28;19948;-75
2022/01/12 14:16:12;;;;;;;;;;;5.10;99.90;;;;;;5018094;28;19921;-75
2022/01/12 14:18:38;;;;;;;;;;;5.10;99.90;;;;;;5018591;28;19996;-74
2022/01/12 14:21:20;;;;;;;;;;;5.00;99.90;;;;;;5021329;28;20416;-75
2022/01/12 14:23:46;;;;;;;;;;;5.00;99.90;;;;;;5021926;28;19908;-75
2022/01/12 14:26:25;;;;;;;;;;;4.90;99.90;;;;;;5020531;28;19920;-74
2022/01/12 14:28:51;;;;;;;;;;;4.90;99.90;;;;;;5019076;28;20031;-75
2022/01/12 14:31:17;;;;;;;;;;;4.80;99.90;;;;;;5020042;28;19913;-75
2022/01/12 14:33:42;;;;;;;;;;;4.80;99.90;;;;;;5020097;28;20340;-75
2022/01/12 14:36:08;;;;;;;;;;;4.80;99.90;;;;;;5020174;28;20018;-76
2022/01/12 14:38:33;;;;;;;;;;;4.70;99.90;;;;;;5023192;28;19909;-75
2022/01/12 14:40:58;;;;;;;;;;;4.70;99.90;;;;;;5025606;28;20353;-77
2022/01/12 14:43:29;;;;;;;;;;;4.70;99.90;;;;;;5023007;28;20375;-75
2022/01/12 14:45:54;;;;;;;;;;;4.70;99.90;;;;;;5020578;28;19928;-76
2022/01/12 14:48:23;;;;;;;;;;;4.80;99.90;;;;;;5020224;28;19913;-80
2022/01/12 14:50:52;;;;;;;;;;;4.80;99.90;;;;;;5019094;28;19917;-80
2022/01/12 14:53:21;;;;;;;;;;;4.90;99.90;;;;;;5018850;28;19943;-80
2022/01/12 14:55:48;;;;;;;;;;;4.90;99.90;;;;;;5018653;28;20358;-76
2022/01/12 14:58:14;;;;;;;;;;;4.90;99.90;;;;;;5018347;28;19949;-77
2022/01/12 15:00:40;;;;;;;;;;;4.90;99.90;;;;;;5020243;28;19932;-76
2022/01/12 15:03:09;;;;;;;;;;;4.90;99.90;;;;;;5018848;28;19913;-76
2022/01/12 15:05:35;;;;;;;;;;;4.90;99.90;;;;;;5018711;28;20439;-76
2022/01/12 15:08:01;;;;;;;;;;;4.90;99.90;;;;;;5018503;28;19917;-76
2022/01/12 15:10:27;;;;;;;;;;;5.00;99.90;;;;;;5021496;28;19906;-77
2022/01/12 15:13:02;;;;;;;;;;;5.00;99.90;;;;;;5019218;28;20365;-77
2022/01/12 15:15:28;;;;;;;;;;;5.00;99.90;;;;;;5018900;28;19924;-74
2022/01/12 15:17:53;;;;;;;;;;;5.00;99.90;;;;;;5019866;28;19918;-74
2022/01/12 15:20:19;;;;;;;;;;;5.00;99.90;;;;;;5016324;28;19916;-77
2022/01/12 15:22:45;;;;;;;;;;;5.00;99.90;;;;;;5019183;28;20016;-79
2022/01/12 15:25:11;;;;;;;;;;;5.00;99.90;;;;;;5019431;28;20270;-76
2022/01/12 15:27:37;;;;;;;;;;;5.00;99.90;;;;;;5016121;28;20066;-77
2022/01/12 15:30:04;;;;;;;;;;;5.00;99.90;;;;;;5018081;28;20396;-77
2022/01/12 15:32:29;;;;;;;;;;;5.00;99.90;;;;;;5016823;28;19913;-77
2022/01/12 15:34:55;;;;;;;;;;;5.00;99.90;;;;;;5019470;28;19910;-77
2022/01/12 15:37:24;;;;;;;;;;;5.00;99.90;;;;;;5014315;28;19948;-76
2022/01/12 15:39:51;;;;;;;;;;;5.00;99.90;;;;;;5015039;28;20000;-77
2022/01/12 15:42:16;;;;;;;;;;;4.90;99.90;;;;;;5015586;28;20258;-76
2022/01/12 15:44:42;;;;;;;;;;;4.90;99.90;;;;;;5015417;28;19973;-77
2022/01/12 15:47:09;;;;;;;;;;;4.90;99.90;;;;;;5012815;28;20056;-78
2022/01/12 15:49:35;;;;;;;;;;;4.90;99.90;;;;;;5017487;28;20227;-78
2022/01/12 15:52:00;;;;;;;;;;;4.90;99.90;;;;;;5019235;28;19924;-78